sensor_id;sensor_type;location;lat;lon;timestamp;temperature;humidity
1307;DHT22;646;48.696;9.114;2022-09-09T00:05:12;12.50;99.90
1307;DHT22;646;48.696;9.114;2022-09-09T00:07:51;12.70;99.90
1307;DHT22;646;48.696;9.114;2022-09-09T00:10:36;12.60;99.90
1307;DHT22;646;48.696;9.114;2022-09-09T00:19:02;12.70;99.90
1307;DHT22;646;48.696;9.114;2022-09-09T00:21:56;12.80;99.90
1307;DHT22;646;48.696;9.114;2022-09-09T00:24:32;12.90;99.90
1307;DHT22;646;48.696;9.114;2022-09-09T00:27:37;12.70;99.90
1307;DHT22;646;48.696;9.114;2022-09-09T00:30:17;13.10;99.90
1307;DHT22;646;48.696;9.114;2022-09-09T00:32:47;13.00;99.90
1307;DHT22;646;48.696;9.114;2022-09-09T00:35:33;13.20;99.90
1307;DHT22;646;48.696;9.114;2022-09-09T00:38:18;13.10;99.90
1307;DHT22;646;48.696;9.114;2022-09-09T00:43:35;13.20;99.90
1307;DHT22;646;48.696;9.114;2022-09-09T00:54:38;13.50;99.90
1307;DHT22;646;48.696;9.114;2022-09-09T00:57:25;13.30;99.90
1307;DHT22;646;48.696;9.114;2022-09-09T01:03:25;13.80;99.90
1307;DHT22;646;48.696;9.114;2022-09-09T01:06:13;13.70;99.90
1307;DHT22;646;48.696;9.114;2022-09-09T01:08:48;13.60;99.90
1307;DHT22;646;48.696;9.114;2022-09-09T01:11:43;13.40;99.90
1307;DHT22;646;48.696;9.114;2022-09-09T01:16:52;13.50;99.90
1307;DHT22;646;48.696;9.114;2022-09-09T01:19:31;13.60;99.90
1307;DHT22;646;48.696;9.114;2022-09-09T01:24:42;13.70;99.90
1307;DHT22;646;48.696;9.114;2022-09-09T01:27:10;13.30;99.90
1307;DHT22;646;48.696;9.114;2022-09-09T01:29:36;13.40;99.90
1307;DHT22;646;48.696;9.114;2022-09-09T01:32:37;13.30;99.90
1307;DHT22;646;48.696;9.114;2022-09-09T01:35:04;13.50;99.90
1307;DHT22;646;48.696;9.114;2022-09-09T01:37:29;13.30;99.90
1307;DHT22;646;48.696;9.114;2022-09-09T01:39:55;13.30;99.90
1307;DHT22;646;48.696;9.114;2022-09-09T01:42:20;13.10;99.90
1307;DHT22;646;48.696;9.114;2022-09-09T01:44:46;13.30;99.90
1307;DHT22;646;48.696;9.114;2022-09-09T01:47:12;13.40;99.90
1307;DHT22;646;48.696;9.114;2022-09-09T01:49:37;13.20;99.90
1307;DHT22;646;48.696;9.114;2022-09-09T01:52:03;13.40;99.90
1307;DHT22;646;48.696;9.114;2022-09-09T01:54:31;13.50;99.90
1307;DHT22;646;48.696;9.114;2022-09-09T02:08:10;13.10;99.90
1307;DHT22;646;48.696;9.114;2022-09-09T02:10:56;13.10;99.90
1307;DHT22;646;48.696;9.114;2022-09-09T02:13:24;13.10;99.90
1307;DHT22;646;48.696;9.114;2022-09-09T02:15:57;12.70;99.90
1307;DHT22;646;48.696;9.114;2022-09-09T02:18:40;12.90;99.90
1307;DHT22;646;48.696;9.114;2022-09-09T02:21:10;12.90;99.90
1307;DHT22;646;48.696;9.114;2022-09-09T02:23:37;12.60;99.90
1307;DHT22;646;48.696;9.114;2022-09-09T02:26:06;13.00;99.90
1307;DHT22;646;48.696;9.114;2022-09-09T02:28:34;12.80;99.90
1307;DHT22;646;48.696;9.114;2022-09-09T02:31:01;12.70;99.90
1307;DHT22;646;48.696;9.114;2022-09-09T02:33:32;12.60;99.90
1307;DHT22;646;48.696;9.114;2022-09-09T02:36:00;12.60;99.90
1307;DHT22;646;48.696;9.114;2022-09-09T02:38:31;12.70;99.90
1307;DHT22;646;48.696;9.114;2022-09-09T02:40:58;12.70;99.90
1307;DHT22;646;48.696;9.114;2022-09-09T02:43:24;12.60;99.90
1307;DHT22;646;48.696;9.114;2022-09-09T02:48:54;12.60;99.90
1307;DHT22;646;48.696;9.114;2022-09-09T02:51:38;12.40;99.90
1307;DHT22;646;48.696;9.114;2022-09-09T02:54:29;12.50;99.90
1307;DHT22;646;48.696;9.114;2022-09-09T02:56:58;12.30;99.90
1307;DHT22;646;48.696;9.114;2022-09-09T02:59:26;12.20;99.90
1307;DHT22;646;48.696;9.114;2022-09-09T03:01:52;12.40;99.90
1307;DHT22;646;48.696;9.114;2022-09-09T03:04:18;12.20;99.90
1307;DHT22;646;48.696;9.114;2022-09-09T03:06:44;12.30;99.90
1307;DHT22;646;48.696;9.114;2022-09-09T03:09:09;12.30;99.90
1307;DHT22;646;48.696;9.114;2022-09-09T03:11:36;12.10;99.90
1307;DHT22;646;48.696;9.114;2022-09-09T03:14:02;12.30;99.90
1307;DHT22;646;48.696;9.114;2022-09-09T03:16:28;12.50;99.90
1307;DHT22;646;48.696;9.114;2022-09-09T03:18:54;12.40;99.90
1307;DHT22;646;48.696;9.114;2022-09-09T03:21:19;12.20;99.90
1307;DHT22;646;48.696;9.114;2022-09-09T03:23:45;12.60;99.90
1307;DHT22;646;48.696;9.114;2022-09-09T03:26:11;12.60;99.90
1307;DHT22;646;48.696;9.114;2022-09-09T03:28:36;12.30;99.90
1307;DHT22;646;48.696;9.114;2022-09-09T03:31:04;12.10;99.90
1307;DHT22;646;48.696;9.114;2022-09-09T03:33:30;12.10;99.90
1307;DHT22;646;48.696;9.114;2022-09-09T03:35:56;12.50;99.90
1307;DHT22;646;48.696;9.114;2022-09-09T03:38:23;12.40;99.90
1307;DHT22;646;48.696;9.114;2022-09-09T03:40:53;12.40;99.90
1307;DHT22;646;48.696;9.114;2022-09-09T03:43:26;12.10;99.90
1307;DHT22;646;48.696;9.114;2022-09-09T03:45:53;12.10;99.90
1307;DHT22;646;48.696;9.114;2022-09-09T03:48:19;12.60;99.90
1307;DHT22;646;48.696;9.114;2022-09-09T03:50:49;12.40;99.90
1307;DHT22;646;48.696;9.114;2022-09-09T03:53:16;12.30;99.90
1307;DHT22;646;48.696;9.114;2022-09-09T03:55:46;12.70;99.90
1307;DHT22;646;48.696;9.114;2022-09-09T03:58:13;12.60;99.90
1307;DHT22;646;48.696;9.114;2022-09-09T04:00:39;12.50;99.90
1307;DHT22;646;48.696;9.114;2022-09-09T04:03:08;12.40;99.90
1307;DHT22;646;48.696;9.114;2022-09-09T04:05:34;12.40;99.90
1307;DHT22;646;48.696;9.114;2022-09-09T04:08:00;12.60;99.90
1307;DHT22;646;48.696;9.114;2022-09-09T04:10:25;12.40;99.90
1307;DHT22;646;48.696;9.114;2022-09-09T04:12:51;12.40;99.90
1307;DHT22;646;48.696;9.114;2022-09-09T04:15:17;12.60;99.90
1307;DHT22;646;48.696;9.114;2022-09-09T04:17:43;12.50;99.90
1307;DHT22;646;48.696;9.114;2022-09-09T04:20:09;12.50;99.90
1307;DHT22;646;48.696;9.114;2022-09-09T04:22:37;12.60;99.90
1307;DHT22;646;48.696;9.114;2022-09-09T04:25:05;12.70;99.90
1307;DHT22;646;48.696;9.114;2022-09-09T04:27:31;12.60;99.90
1307;DHT22;646;48.696;9.114;2022-09-09T04:29:57;12.60;99.90
1307;DHT22;646;48.696;9.114;2022-09-09T04:32:23;12.70;99.90
1307;DHT22;646;48.696;9.114;2022-09-09T04:34:48;12.70;99.90
1307;DHT22;646;48.696;9.114;2022-09-09T04:37:14;13.10;99.90
1307;DHT22;646;48.696;9.114;2022-09-09T04:39:39;13.10;99.90
1307;DHT22;646;48.696;9.114;2022-09-09T04:42:05;13.10;99.90
1307;DHT22;646;48.696;9.114;2022-09-09T04:44:31;13.20;99.90
1307;DHT22;646;48.696;9.114;2022-09-09T04:46:56;13.20;99.90
1307;DHT22;646;48.696;9.114;2022-09-09T04:49:22;13.20;99.90
1307;DHT22;646;48.696;9.114;2022-09-09T04:51:49;13.20;99.90
1307;DHT22;646;48.696;9.114;2022-09-09T04:54:14;13.40;99.90
1307;DHT22;646;48.696;9.114;2022-09-09T04:56:40;13.40;99.90
1307;DHT22;646;48.696;9.114;2022-09-09T04:59:07;13.10;99.90
1307;DHT22;646;48.696;9.114;2022-09-09T05:01:33;13.50;99.90
1307;DHT22;646;48.696;9.114;2022-09-09T05:03:59;13.20;99.90
1307;DHT22;646;48.696;9.114;2022-09-09T05:06:24;13.40;99.90
1307;DHT22;646;48.696;9.114;2022-09-09T05:08:51;13.50;99.90
1307;DHT22;646;48.696;9.114;2022-09-09T05:11:25;13.40;99.90
1307;DHT22;646;48.696;9.114;2022-09-09T05:13:52;13.20;99.90
1307;DHT22;646;48.696;9.114;2022-09-09T05:16:31;13.20;99.90
1307;DHT22;646;48.696;9.114;2022-09-09T05:18:57;13.40;99.90
1307;DHT22;646;48.696;9.114;2022-09-09T05:21:24;13.60;99.90
1307;DHT22;646;48.696;9.114;2022-09-09T05:23:52;14.00;99.90
1307;DHT22;646;48.696;9.114;2022-09-09T05:26:20;13.70;99.90
1307;DHT22;646;48.696;9.114;2022-09-09T05:28:46;13.90;99.90
1307;DHT22;646;48.696;9.114;2022-09-09T05:31:13;14.00;99.90
1307;DHT22;646;48.696;9.114;2022-09-09T05:33:40;14.10;99.90
1307;DHT22;646;48.696;9.114;2022-09-09T05:36:26;13.90;99.90
1307;DHT22;646;48.696;9.114;2022-09-09T05:38:51;13.90;99.90
1307;DHT22;646;48.696;9.114;2022-09-09T05:41:19;14.20;99.90
1307;DHT22;646;48.696;9.114;2022-09-09T05:43:46;14.30;99.90
1307;DHT22;646;48.696;9.114;2022-09-09T05:46:17;14.40;99.90
1307;DHT22;646;48.696;9.114;2022-09-09T05:48:44;14.40;99.90
1307;DHT22;646;48.696;9.114;2022-09-09T05:51:18;14.40;99.90
1307;DHT22;646;48.696;9.114;2022-09-09T05:53:45;14.50;99.90
1307;DHT22;646;48.696;9.114;2022-09-09T05:56:13;14.40;99.90
1307;DHT22;646;48.696;9.114;2022-09-09T05:58:41;14.70;99.90
1307;DHT22;646;48.696;9.114;2022-09-09T06:01:22;14.50;99.90
1307;DHT22;646;48.696;9.114;2022-09-09T06:03:49;14.60;99.90
1307;DHT22;646;48.696;9.114;2022-09-09T06:06:17;14.70;99.90
1307;DHT22;646;48.696;9.114;2022-09-09T06:08:43;14.90;99.90
1307;DHT22;646;48.696;9.114;2022-09-09T06:11:14;15.10;99.90
1307;DHT22;646;48.696;9.114;2022-09-09T06:13:40;15.20;99.90
1307;DHT22;646;48.696;9.114;2022-09-09T06:16:12;15.20;99.90
1307;DHT22;646;48.696;9.114;2022-09-09T06:18:38;15.20;99.90
1307;DHT22;646;48.696;9.114;2022-09-09T06:21:06;15.10;99.90
1307;DHT22;646;48.696;9.114;2022-09-09T06:23:32;15.20;99.90
1307;DHT22;646;48.696;9.114;2022-09-09T06:26:05;15.40;99.90
1307;DHT22;646;48.696;9.114;2022-09-09T06:28:32;15.30;99.90
1307;DHT22;646;48.696;9.114;2022-09-09T06:31:02;15.80;99.90
1307;DHT22;646;48.696;9.114;2022-09-09T06:33:32;15.90;99.90
1307;DHT22;646;48.696;9.114;2022-09-09T06:36:00;15.90;99.90
1307;DHT22;646;48.696;9.114;2022-09-09T06:38:25;15.90;99.90
1307;DHT22;646;48.696;9.114;2022-09-09T06:40:53;16.20;99.90
1307;DHT22;646;48.696;9.114;2022-09-09T06:43:20;16.40;99.90
1307;DHT22;646;48.696;9.114;2022-09-09T06:45:56;16.60;99.90
1307;DHT22;646;48.696;9.114;2022-09-09T06:48:22;16.50;99.90
1307;DHT22;646;48.696;9.114;2022-09-09T06:50:47;16.60;99.90
1307;DHT22;646;48.696;9.114;2022-09-09T06:53:17;16.80;99.90
1307;DHT22;646;48.696;9.114;2022-09-09T06:55:45;17.00;99.90
1307;DHT22;646;48.696;9.114;2022-09-09T06:58:10;17.00;99.90
1307;DHT22;646;48.696;9.114;2022-09-09T07:00:36;17.20;99.90
1307;DHT22;646;48.696;9.114;2022-09-09T07:03:04;17.40;99.90
1307;DHT22;646;48.696;9.114;2022-09-09T07:05:31;17.70;99.90
1307;DHT22;646;48.696;9.114;2022-09-09T07:07:57;17.70;99.90
1307;DHT22;646;48.696;9.114;2022-09-09T07:10:22;18.00;99.90
1307;DHT22;646;48.696;9.114;2022-09-09T07:12:51;17.80;99.90
1307;DHT22;646;48.696;9.114;2022-09-09T07:15:18;17.90;99.90
1307;DHT22;646;48.696;9.114;2022-09-09T07:17:48;18.30;99.90
1307;DHT22;646;48.696;9.114;2022-09-09T07:20:14;18.20;99.90
1307;DHT22;646;48.696;9.114;2022-09-09T07:22:41;18.40;99.90
1307;DHT22;646;48.696;9.114;2022-09-09T07:25:07;18.60;99.90
1307;DHT22;646;48.696;9.114;2022-09-09T07:27:33;18.60;99.90
1307;DHT22;646;48.696;9.114;2022-09-09T07:29:58;18.90;99.90
1307;DHT22;646;48.696;9.114;2022-09-09T07:32:24;18.70;99.00
1307;DHT22;646;48.696;9.114;2022-09-09T07:34:51;19.00;99.70
1307;DHT22;646;48.696;9.114;2022-09-09T07:37:16;19.00;99.10
1307;DHT22;646;48.696;9.114;2022-09-09T07:39:42;18.60;99.50
1307;DHT22;646;48.696;9.114;2022-09-09T07:42:08;18.80;99.50
1307;DHT22;646;48.696;9.114;2022-09-09T07:44:37;19.00;99.20
1307;DHT22;646;48.696;9.114;2022-09-09T07:47:05;19.10;99.20
1307;DHT22;646;48.696;9.114;2022-09-09T07:49:30;19.00;98.40
1307;DHT22;646;48.696;9.114;2022-09-09T07:51:57;19.20;97.50
1307;DHT22;646;48.696;9.114;2022-09-09T07:54:23;18.90;97.80
1307;DHT22;646;48.696;9.114;2022-09-09T07:56:49;19.00;97.30
1307;DHT22;646;48.696;9.114;2022-09-09T07:59:15;19.00;96.30
1307;DHT22;646;48.696;9.114;2022-09-09T08:01:43;18.90;95.20
1307;DHT22;646;48.696;9.114;2022-09-09T08:04:15;19.40;94.90
1307;DHT22;646;48.696;9.114;2022-09-09T08:06:43;19.30;94.00
1307;DHT22;646;48.696;9.114;2022-09-09T08:09:10;19.10;93.90
1307;DHT22;646;48.696;9.114;2022-09-09T08:11:36;18.80;93.50
1307;DHT22;646;48.696;9.114;2022-09-09T08:14:03;19.10;93.60
1307;DHT22;646;48.696;9.114;2022-09-09T08:16:31;19.10;93.30
1307;DHT22;646;48.696;9.114;2022-09-09T08:18:58;19.10;94.20
1307;DHT22;646;48.696;9.114;2022-09-09T08:21:26;19.00;93.30
1307;DHT22;646;48.696;9.114;2022-09-09T08:23:56;19.20;93.70
1307;DHT22;646;48.696;9.114;2022-09-09T08:26:24;19.40;93.40
1307;DHT22;646;48.696;9.114;2022-09-09T08:28:51;19.40;94.00
1307;DHT22;646;48.696;9.114;2022-09-09T08:31:26;19.40;93.50
1307;DHT22;646;48.696;9.114;2022-09-09T08:33:53;19.70;92.80
1307;DHT22;646;48.696;9.114;2022-09-09T08:36:22;19.60;91.20
1307;DHT22;646;48.696;9.114;2022-09-09T08:38:49;19.70;90.50
1307;DHT22;646;48.696;9.114;2022-09-09T08:43:47;20.20;87.60
1307;DHT22;646;48.696;9.114;2022-09-09T08:52:30;23.30;78.30
1307;DHT22;646;48.696;9.114;2022-09-09T08:55:03;25.00;67.20
1307;DHT22;646;48.696;9.114;2022-09-09T08:57:31;25.60;59.80
1307;DHT22;646;48.696;9.114;2022-09-09T08:59:58;25.70;56.80
1307;DHT22;646;48.696;9.114;2022-09-09T09:05:30;28.70;50.20
1307;DHT22;646;48.696;9.114;2022-09-09T09:08:17;30.70;46.20
1307;DHT22;646;48.696;9.114;2022-09-09T09:10:52;32.50;41.70
1307;DHT22;646;48.696;9.114;2022-09-09T09:13:30;33.60;39.30
1307;DHT22;646;48.696;9.114;2022-09-09T09:16:02;32.90;36.40
1307;DHT22;646;48.696;9.114;2022-09-09T09:18:29;31.10;38.70
1307;DHT22;646;48.696;9.114;2022-09-09T09:21:13;28.90;40.30
1307;DHT22;646;48.696;9.114;2022-09-09T09:23:49;26.70;45.80
1307;DHT22;646;48.696;9.114;2022-09-09T09:26:19;24.10;50.30
1307;DHT22;646;48.696;9.114;2022-09-09T09:28:47;22.80;55.90
1307;DHT22;646;48.696;9.114;2022-09-09T09:31:13;21.50;59.40
1307;DHT22;646;48.696;9.114;2022-09-09T09:33:51;20.70;65.50
1307;DHT22;646;48.696;9.114;2022-09-09T09:36:18;21.00;73.40
1307;DHT22;646;48.696;9.114;2022-09-09T09:38:56;21.90;77.50
1307;DHT22;646;48.696;9.114;2022-09-09T09:41:31;23.10;76.40
1307;DHT22;646;48.696;9.114;2022-09-09T09:43:58;23.70;74.50
1307;DHT22;646;48.696;9.114;2022-09-09T09:46:24;24.00;71.80
1307;DHT22;646;48.696;9.114;2022-09-09T09:49:10;23.80;68.50
1307;DHT22;646;48.696;9.114;2022-09-09T09:51:35;23.90;72.90
1307;DHT22;646;48.696;9.114;2022-09-09T09:56:41;27.50;68.10
1307;DHT22;646;48.696;9.114;2022-09-09T10:01:45;31.40;54.60
1307;DHT22;646;48.696;9.114;2022-09-09T10:04:16;32.90;51.00
1307;DHT22;646;48.696;9.114;2022-09-09T10:06:43;32.90;46.70
1307;DHT22;646;48.696;9.114;2022-09-09T10:09:24;33.30;47.40
1307;DHT22;646;48.696;9.114;2022-09-09T10:12:16;34.40;46.80
1307;DHT22;646;48.696;9.114;2022-09-09T10:17:36;37.00;42.80
1307;DHT22;646;48.696;9.114;2022-09-09T10:23:18;39.30;38.10
1307;DHT22;646;48.696;9.114;2022-09-09T10:26:29;38.50;36.00
1307;DHT22;646;48.696;9.114;2022-09-09T10:34:20;38.70;37.70
1307;DHT22;646;48.696;9.114;2022-09-09T10:36:50;38.40;35.60
1307;DHT22;646;48.696;9.114;2022-09-09T10:47:44;33.10;42.30
1307;DHT22;646;48.696;9.114;2022-09-09T10:53:31;30.90;44.90
1307;DHT22;646;48.696;9.114;2022-09-09T10:56:03;30.40;48.00
1307;DHT22;646;48.696;9.114;2022-09-09T11:01:37;32.70;45.90
1307;DHT22;646;48.696;9.114;2022-09-09T11:04:25;32.40;43.80
1307;DHT22;646;48.696;9.114;2022-09-09T11:06:54;32.00;45.70
1307;DHT22;646;48.696;9.114;2022-09-09T11:09:30;31.60;45.50
1307;DHT22;646;48.696;9.114;2022-09-09T11:11:58;30.90;41.90
1307;DHT22;646;48.696;9.114;2022-09-09T11:14:36;29.90;42.50
1307;DHT22;646;48.696;9.114;2022-09-09T11:17:42;28.70;45.00
1307;DHT22;646;48.696;9.114;2022-09-09T11:20:13;27.50;46.30
1307;DHT22;646;48.696;9.114;2022-09-09T11:23:04;26.40;46.30
1307;DHT22;646;48.696;9.114;2022-09-09T11:25:40;25.20;47.70
1307;DHT22;646;48.696;9.114;2022-09-09T11:28:37;24.30;49.40
1307;DHT22;646;48.696;9.114;2022-09-09T11:34:04;23.30;51.50
1307;DHT22;646;48.696;9.114;2022-09-09T11:42:19;22.90;53.80
1307;DHT22;646;48.696;9.114;2022-09-09T11:44:45;22.30;53.40
1307;DHT22;646;48.696;9.114;2022-09-09T11:47:22;22.40;54.60
1307;DHT22;646;48.696;9.114;2022-09-09T11:49:51;22.40;54.20
1307;DHT22;646;48.696;9.114;2022-09-09T11:52:41;23.30;53.10
1307;DHT22;646;48.696;9.114;2022-09-09T11:55:32;24.60;52.70
1307;DHT22;646;48.696;9.114;2022-09-09T12:00:39;26.10;47.80
1307;DHT22;646;48.696;9.114;2022-09-09T12:03:40;25.80;45.90
1307;DHT22;646;48.696;9.114;2022-09-09T12:06:30;25.50;45.70
1307;DHT22;646;48.696;9.114;2022-09-09T12:09:14;26.10;46.90
1307;DHT22;646;48.696;9.114;2022-09-09T12:11:42;27.10;44.20
1307;DHT22;646;48.696;9.114;2022-09-09T12:14:19;27.70;45.30
1307;DHT22;646;48.696;9.114;2022-09-09T12:16:45;29.90;44.50
1307;DHT22;646;48.696;9.114;2022-09-09T12:19:21;32.10;39.30
1307;DHT22;646;48.696;9.114;2022-09-09T12:24:26;34.50;31.10
1307;DHT22;646;48.696;9.114;2022-09-09T12:27:02;35.60;31.10
1307;DHT22;646;48.696;9.114;2022-09-09T12:32:07;36.70;27.40
1307;DHT22;646;48.696;9.114;2022-09-09T12:39:42;35.40;27.00
1307;DHT22;646;48.696;9.114;2022-09-09T12:42:20;33.60;29.10
1307;DHT22;646;48.696;9.114;2022-09-09T12:44:56;31.80;31.60
1307;DHT22;646;48.696;9.114;2022-09-09T12:50:32;31.10;34.90
1307;DHT22;646;48.696;9.114;2022-09-09T12:53:08;31.00;36.70
1307;DHT22;646;48.696;9.114;2022-09-09T12:55:37;30.70;35.30
1307;DHT22;646;48.696;9.114;2022-09-09T12:58:04;29.90;35.70
1307;DHT22;646;48.696;9.114;2022-09-09T13:00:32;28.90;38.20
1307;DHT22;646;48.696;9.114;2022-09-09T13:03:03;28.00;40.70
1307;DHT22;646;48.696;9.114;2022-09-09T13:05:35;27.20;41.20
1307;DHT22;646;48.696;9.114;2022-09-09T13:08:03;26.70;42.90
1307;DHT22;646;48.696;9.114;2022-09-09T13:10:33;26.20;42.90
1307;DHT22;646;48.696;9.114;2022-09-09T13:13:01;26.30;43.30
1307;DHT22;646;48.696;9.114;2022-09-09T13:15:28;25.90;42.20
1307;DHT22;646;48.696;9.114;2022-09-09T13:17:57;26.50;43.60
1307;DHT22;646;48.696;9.114;2022-09-09T13:20:23;28.20;44.10
1307;DHT22;646;48.696;9.114;2022-09-09T13:22:51;30.00;39.50
1307;DHT22;646;48.696;9.114;2022-09-09T13:25:21;31.40;34.40
1307;DHT22;646;48.696;9.114;2022-09-09T13:28:02;32.30;34.20
1307;DHT22;646;48.696;9.114;2022-09-09T13:33:21;33.30;31.70
1307;DHT22;646;48.696;9.114;2022-09-09T13:35:54;34.00;30.00
1307;DHT22;646;48.696;9.114;2022-09-09T13:38:20;34.40;29.30
1307;DHT22;646;48.696;9.114;2022-09-09T13:41:01;33.40;29.10
1307;DHT22;646;48.696;9.114;2022-09-09T13:43:36;32.20;31.80
1307;DHT22;646;48.696;9.114;2022-09-09T13:46:05;31.50;33.50
1307;DHT22;646;48.696;9.114;2022-09-09T13:48:31;32.30;35.10
1307;DHT22;646;48.696;9.114;2022-09-09T13:51:02;33.50;34.90
1307;DHT22;646;48.696;9.114;2022-09-09T13:53:31;34.50;30.70
1307;DHT22;646;48.696;9.114;2022-09-09T13:55:57;35.40;31.50
1307;DHT22;646;48.696;9.114;2022-09-09T13:58:23;35.70;29.30
1307;DHT22;646;48.696;9.114;2022-09-09T14:00:51;35.20;29.20
1307;DHT22;646;48.696;9.114;2022-09-09T14:03:17;34.70;29.10
1307;DHT22;646;48.696;9.114;2022-09-09T14:05:44;35.20;29.60
1307;DHT22;646;48.696;9.114;2022-09-09T14:08:19;35.80;28.80
1307;DHT22;646;48.696;9.114;2022-09-09T14:10:45;36.10;27.10
1307;DHT22;646;48.696;9.114;2022-09-09T14:13:11;36.10;27.30
1307;DHT22;646;48.696;9.114;2022-09-09T14:15:37;35.50;26.60
1307;DHT22;646;48.696;9.114;2022-09-09T14:18:03;35.10;27.80
1307;DHT22;646;48.696;9.114;2022-09-09T14:20:28;33.80;28.30
1307;DHT22;646;48.696;9.114;2022-09-09T14:22:54;32.60;29.90
1307;DHT22;646;48.696;9.114;2022-09-09T14:25:19;32.40;29.90
1307;DHT22;646;48.696;9.114;2022-09-09T14:27:45;32.40;29.30
1307;DHT22;646;48.696;9.114;2022-09-09T14:30:11;32.80;30.00
1307;DHT22;646;48.696;9.114;2022-09-09T14:32:37;33.40;29.20
1307;DHT22;646;48.696;9.114;2022-09-09T14:35:03;33.30;28.60
1307;DHT22;646;48.696;9.114;2022-09-09T14:37:29;33.20;27.70
1307;DHT22;646;48.696;9.114;2022-09-09T14:39:56;33.00;28.40
1307;DHT22;646;48.696;9.114;2022-09-09T14:42:22;33.20;28.80
1307;DHT22;646;48.696;9.114;2022-09-09T14:44:48;33.10;27.90
1307;DHT22;646;48.696;9.114;2022-09-09T14:47:14;33.00;28.10
1307;DHT22;646;48.696;9.114;2022-09-09T14:49:39;32.80;28.80
1307;DHT22;646;48.696;9.114;2022-09-09T14:52:05;32.80;28.30
1307;DHT22;646;48.696;9.114;2022-09-09T14:54:31;32.80;28.80
1307;DHT22;646;48.696;9.114;2022-09-09T14:56:57;32.40;27.70
1307;DHT22;646;48.696;9.114;2022-09-09T14:59:23;31.90;29.10
1307;DHT22;646;48.696;9.114;2022-09-09T15:01:48;31.50;29.10
1307;DHT22;646;48.696;9.114;2022-09-09T15:04:14;31.30;29.40
1307;DHT22;646;48.696;9.114;2022-09-09T15:06:40;31.00;29.50
1307;DHT22;646;48.696;9.114;2022-09-09T15:09:08;30.70;30.60
1307;DHT22;646;48.696;9.114;2022-09-09T15:11:35;29.80;31.30
1307;DHT22;646;48.696;9.114;2022-09-09T15:14:03;29.30;32.20
1307;DHT22;646;48.696;9.114;2022-09-09T15:16:30;28.80;32.80
1307;DHT22;646;48.696;9.114;2022-09-09T15:18:58;28.70;34.40
1307;DHT22;646;48.696;9.114;2022-09-09T15:21:26;29.00;34.70
1307;DHT22;646;48.696;9.114;2022-09-09T15:23:52;29.30;34.90
1307;DHT22;646;48.696;9.114;2022-09-09T15:26:19;29.60;34.20
1307;DHT22;646;48.696;9.114;2022-09-09T15:28:46;29.90;34.30
1307;DHT22;646;48.696;9.114;2022-09-09T15:31:13;30.00;33.10
1307;DHT22;646;48.696;9.114;2022-09-09T15:33:53;29.90;33.40
1307;DHT22;646;48.696;9.114;2022-09-09T15:36:21;29.30;33.10
1307;DHT22;646;48.696;9.114;2022-09-09T15:38:50;28.30;34.20
1307;DHT22;646;48.696;9.114;2022-09-09T15:41:17;27.20;35.80
1307;DHT22;646;48.696;9.114;2022-09-09T15:43:48;26.20;37.70
1307;DHT22;646;48.696;9.114;2022-09-09T15:46:22;25.20;39.70
1307;DHT22;646;48.696;9.114;2022-09-09T15:48:55;24.10;40.80
1307;DHT22;646;48.696;9.114;2022-09-09T15:51:22;23.70;42.60
1307;DHT22;646;48.696;9.114;2022-09-09T15:53:49;23.00;43.30
1307;DHT22;646;48.696;9.114;2022-09-09T15:56:19;22.30;43.90
1307;DHT22;646;48.696;9.114;2022-09-09T15:58:44;21.90;44.90
1307;DHT22;646;48.696;9.114;2022-09-09T16:01:10;21.60;46.10
1307;DHT22;646;48.696;9.114;2022-09-09T16:03:40;21.40;47.60
1307;DHT22;646;48.696;9.114;2022-09-09T16:06:08;21.10;48.40
1307;DHT22;646;48.696;9.114;2022-09-09T16:08:40;21.10;48.30
1307;DHT22;646;48.696;9.114;2022-09-09T16:11:14;20.90;49.80
1307;DHT22;646;48.696;9.114;2022-09-09T16:13:42;20.60;49.40
1307;DHT22;646;48.696;9.114;2022-09-09T16:16:12;20.40;49.70
1307;DHT22;646;48.696;9.114;2022-09-09T16:18:41;20.50;50.50
1307;DHT22;646;48.696;9.114;2022-09-09T16:21:07;20.50;50.80
1307;DHT22;646;48.696;9.114;2022-09-09T16:23:36;20.40;50.50
1307;DHT22;646;48.696;9.114;2022-09-09T16:26:02;20.40;51.30
1307;DHT22;646;48.696;9.114;2022-09-09T16:28:29;20.30;51.10
1307;DHT22;646;48.696;9.114;2022-09-09T16:30:54;20.30;51.40
1307;DHT22;646;48.696;9.114;2022-09-09T16:33:20;20.10;51.50
1307;DHT22;646;48.696;9.114;2022-09-09T16:35:46;20.10;51.20
1307;DHT22;646;48.696;9.114;2022-09-09T16:38:11;20.30;51.70
1307;DHT22;646;48.696;9.114;2022-09-09T16:40:37;20.20;51.70
1307;DHT22;646;48.696;9.114;2022-09-09T16:43:04;20.10;52.40
1307;DHT22;646;48.696;9.114;2022-09-09T16:45:31;20.20;53.00
1307;DHT22;646;48.696;9.114;2022-09-09T16:47:57;20.30;54.00
1307;DHT22;646;48.696;9.114;2022-09-09T16:50:23;20.00;54.00
1307;DHT22;646;48.696;9.114;2022-09-09T16:52:48;19.90;53.70
1307;DHT22;646;48.696;9.114;2022-09-09T16:55:14;19.70;54.30
1307;DHT22;646;48.696;9.114;2022-09-09T16:57:39;19.80;55.30
1307;DHT22;646;48.696;9.114;2022-09-09T17:00:09;19.70;55.60
1307;DHT22;646;48.696;9.114;2022-09-09T17:02:35;19.40;55.20
1307;DHT22;646;48.696;9.114;2022-09-09T17:05:00;19.30;55.10
1307;DHT22;646;48.696;9.114;2022-09-09T17:07:26;19.10;55.00
1307;DHT22;646;48.696;9.114;2022-09-09T17:09:52;19.10;55.20
1307;DHT22;646;48.696;9.114;2022-09-09T17:12:18;18.90;55.30
1307;DHT22;646;48.696;9.114;2022-09-09T17:14:43;18.70;55.70
1307;DHT22;646;48.696;9.114;2022-09-09T17:17:10;18.70;56.30
1307;DHT22;646;48.696;9.114;2022-09-09T17:19:36;18.30;56.20
1307;DHT22;646;48.696;9.114;2022-09-09T17:22:01;18.50;57.00
1307;DHT22;646;48.696;9.114;2022-09-09T17:24:27;18.30;57.00
1307;DHT22;646;48.696;9.114;2022-09-09T17:26:54;18.10;57.50
1307;DHT22;646;48.696;9.114;2022-09-09T17:29:20;18.10;58.20
1307;DHT22;646;48.696;9.114;2022-09-09T17:31:45;18.10;59.00
1307;DHT22;646;48.696;9.114;2022-09-09T17:34:11;17.80;59.90
1307;DHT22;646;48.696;9.114;2022-09-09T17:36:37;17.40;60.50
1307;DHT22;646;48.696;9.114;2022-09-09T17:39:04;17.60;62.10
1307;DHT22;646;48.696;9.114;2022-09-09T17:41:36;17.40;63.20
1307;DHT22;646;48.696;9.114;2022-09-09T17:44:02;17.40;64.40
1307;DHT22;646;48.696;9.114;2022-09-09T17:46:38;17.10;64.80
1307;DHT22;646;48.696;9.114;2022-09-09T17:49:08;17.10;65.80
1307;DHT22;646;48.696;9.114;2022-09-09T17:51:35;16.70;66.30
1307;DHT22;646;48.696;9.114;2022-09-09T17:54:04;16.90;67.00
1307;DHT22;646;48.696;9.114;2022-09-09T17:56:32;16.70;68.30
1307;DHT22;646;48.696;9.114;2022-09-09T17:58:59;16.30;68.40
1307;DHT22;646;48.696;9.114;2022-09-09T18:01:28;16.50;69.80
1307;DHT22;646;48.696;9.114;2022-09-09T18:03:55;16.10;70.00
1307;DHT22;646;48.696;9.114;2022-09-09T18:06:25;16.40;70.90
1307;DHT22;646;48.696;9.114;2022-09-09T18:08:57;15.80;71.40
1307;DHT22;646;48.696;9.114;2022-09-09T18:11:29;16.00;72.90
1307;DHT22;646;48.696;9.114;2022-09-09T18:13:57;16.00;73.80
1307;DHT22;646;48.696;9.114;2022-09-09T18:16:25;16.00;74.40
1307;DHT22;646;48.696;9.114;2022-09-09T18:18:53;16.00;75.50
1307;DHT22;646;48.696;9.114;2022-09-09T18:21:20;15.90;76.30
1307;DHT22;646;48.696;9.114;2022-09-09T18:23:48;15.90;77.10
1307;DHT22;646;48.696;9.114;2022-09-09T18:26:21;15.90;77.70
1307;DHT22;646;48.696;9.114;2022-09-09T18:28:51;15.80;78.70